createdAt,value
2022-08-05T00:09:24.546Z,15.97
2022-08-05T00:19:25.014Z,15.33
2022-08-05T00:29:25.554Z,15.33
2022-08-05T00:39:24.473Z,15.97
2022-08-05T00:49:23.870Z,15.33
2022-08-05T00:59:24.943Z,15.33
2022-08-05T01:09:24.269Z,15.33
2022-08-05T01:19:36.640Z,15.33
2022-08-05T01:29:25.603Z,15.68
2022-08-05T01:39:36.824Z,15.97
2022-08-05T01:49:25.885Z,15.33
2022-08-05T01:59:26.068Z,16.26
2022-08-05T02:09:25.097Z,16.26
2022-08-05T02:19:25.489Z,15.61
2022-08-05T02:29:58.192Z,15.61
2022-08-05T02:39:26.869Z,15.33
2022-08-05T02:49:26.034Z,16.82
2022-08-05T02:59:27.138Z,16.82
2022-08-05T03:09:36.435Z,16.43
2022-08-05T03:19:34.291Z,16.69
2022-08-05T03:29:45.705Z,17.21
2022-08-05T03:39:28.021Z,17.21
2022-08-05T03:49:31.264Z,16.95
2022-08-05T03:59:29.166Z,16.01
2022-08-05T04:09:28.373Z,16.43
2022-08-05T04:19:27.399Z,16.01
2022-08-05T04:29:28.850Z,16.69
2022-08-05T04:39:28.053Z,16.69
2022-08-05T04:49:39.315Z,16.01
2022-08-05T04:59:38.574Z,16.27
2022-08-05T05:09:29.603Z,15.89
2022-08-05T05:19:37.215Z,16.43
2022-08-05T05:30:04.516Z,16.69
2022-08-05T05:39:34.403Z,16.69
2022-08-05T05:49:30.137Z,16.27
2022-08-05T05:59:29.438Z,16.69
2022-08-05T06:09:51.334Z,16.43
2022-08-05T06:19:34.865Z,16.69
2022-08-05T06:29:49.048Z,16.16
2022-08-05T06:39:30.810Z,16.16
2022-08-05T06:50:00.200Z,17.37
2022-08-05T06:59:38.812Z,17.63
2022-08-05T07:09:32.370Z,17.37
2022-08-05T07:20:05.793Z,18.66
2022-08-05T07:30:27.874Z,17.96
2022-08-05T07:40:26.063Z,17.96
2022-08-05T07:49:32.236Z,18.66
2022-08-05T07:59:40.328Z,18.41
2022-08-05T08:09:32.576Z,19.15
2022-08-05T08:20:21.206Z,18.66
2022-08-05T08:30:05.787Z,18.91
2022-08-05T08:39:33.093Z,19.40
2022-08-05T08:50:12.822Z,20.04
2022-08-05T08:59:33.898Z,19.62
2022-08-05T09:09:35.554Z,19.33
2022-08-05T09:19:36.837Z,19.62
2022-08-05T09:29:33.952Z,19.97
2022-08-05T09:39:41.763Z,19.37
2022-08-05T09:49:40.505Z,19.99
2022-08-05T09:59:34.770Z,19.99
2022-08-05T10:09:44.955Z,19.36
2022-08-05T10:20:04.489Z,19.36
2022-08-05T10:30:06.770Z,19.62
2022-08-05T10:40:03.354Z,20.91
2022-08-05T10:49:49.001Z,19.36
2022-08-05T11:00:03.289Z,19.37
2022-08-05T11:09:45.308Z,19.95
2022-08-05T11:20:16.515Z,20.27
2022-08-05T11:29:35.922Z,19.68
2022-08-05T11:39:35.262Z,20.60
2022-08-05T11:49:35.251Z,19.95
2022-08-05T11:59:41.280Z,20.27
2022-08-05T12:09:38.634Z,19.28
2022-08-05T12:20:27.656Z,19.62
2022-08-05T12:29:39.034Z,19.62
2022-08-05T12:39:37.490Z,20.19
2022-08-05T12:50:03.201Z,19.12
2022-08-05T13:00:08.214Z,19.12
2022-08-05T13:09:37.691Z,22.11
2022-08-05T13:19:51.018Z,20.02
2022-08-05T13:29:38.140Z,21.10
2022-08-05T13:40:15.130Z,20.02
2022-08-05T13:49:38.257Z,20.75
2022-08-05T13:59:38.533Z,22.00
2022-08-05T14:09:46.096Z,19.65
2022-08-05T14:19:55.381Z,19.48
2022-08-05T14:29:38.815Z,19.28
2022-08-05T14:39:49.705Z,18.93
2022-08-05T14:49:59.594Z,19.95
2022-08-05T14:59:39.368Z,19.36
2022-08-05T15:09:52.405Z,20.30
2022-08-05T15:19:39.643Z,20.90
2022-08-05T15:29:41.868Z,20.60
2022-08-05T15:41:00.356Z,19.68
2022-08-05T15:49:58.757Z,19.97
2022-08-05T15:59:40.312Z,19.68
2022-08-05T16:09:41.559Z,19.37
2022-08-05T16:20:04.468Z,19.62
2022-08-05T16:29:44.138Z,20.72
2022-08-05T16:40:06.309Z,21.30
2022-08-05T16:49:41.078Z,20.82
2022-08-05T17:00:01.571Z,20.82
2022-08-05T17:09:58.270Z,20.82
2022-08-05T17:19:41.585Z,19.40
2022-08-05T17:29:41.776Z,19.15
2022-08-05T17:39:41.119Z,19.63
2022-08-05T17:50:00.002Z,18.20
2022-08-05T17:59:42.429Z,17.96
2022-08-05T18:09:58.891Z,17.96
2022-08-05T18:19:42.661Z,17.96
2022-08-05T18:29:42.923Z,17.71
2022-08-05T18:41:50.581Z,16.95
2022-08-05T18:49:44.563Z,16.69
2022-08-05T19:00:03.092Z,16.43
2022-08-05T19:09:44.715Z,16.69
2022-08-05T19:19:46.401Z,16.69
2022-08-05T19:29:43.361Z,16.52
2022-08-05T19:39:45.536Z,16.77
2022-08-05T19:49:44.760Z,15.32
2022-08-05T19:59:54.643Z,16.40
2022-08-05T20:09:53.551Z,17.22
2022-08-05T20:19:45.390Z,16.42
2022-08-05T20:29:57.465Z,17.14
2022-08-05T20:39:51.503Z,17.32
2022-08-05T20:49:44.840Z,17.50
2022-08-05T21:00:10.650Z,17.50
2022-08-05T21:09:50.210Z,17.32
2022-08-05T21:19:48.080Z,17.32
2022-08-05T21:29:48.509Z,17.14
2022-08-05T21:39:46.620Z,17.50
2022-08-05T21:50:00.059Z,17.32
2022-08-05T22:00:04.866Z,17.50
2022-08-05T22:09:47.436Z,17.50
2022-08-05T22:20:03.347Z,16.51
2022-08-05T22:29:47.478Z,17.67
2022-08-05T22:39:50.504Z,17.50
2022-08-05T22:50:19.999Z,17.50
2022-08-05T22:59:51.997Z,17.50
2022-08-05T23:09:57.037Z,17.67
2022-08-05T23:19:51.125Z,17.50
2022-08-05T23:29:48.465Z,17.84
2022-08-05T23:39:54.287Z,18.01
2022-08-05T23:49:48.774Z,17.84
